Rathfriland, United Kingdom
Current Conditions -  °F | °C
As of 1:50 PM on Saturday 01 Nov 2014 (Local Time) from EGAC Reporting Station
Rain Showers Rain Showers  
Wind Chill: 55°   Ceiling: Unl
Heat Index: 55°   Visibility: 6mi
Dew Point: 48°   Wind: 14mph
Humidity: 77%   Direction: 180°S
Pressure: 29.59"   Gusts: NA
Location:  54.25°N, 6.17°W
Report Text: EGAC 011350Z 18012KT 9999 -SHRA FEW023 SCT028 13/09 Q1002
Loading
Personal Weather Stations






























Interactive Weather Map
Tropical Storm Tracking
New forecast layout! Learn more

10-Day Weather Forecast

Advertisements
Track Severe Weather on mobile